Charfield, United Kingdom
Current Conditions -  °F | °C
As of 6:20 PM on Friday 26 Dec 2014 (Local Time) from EGGD Reporting Station
Moderate Rain Moderate Rain  
Wind Chill:   Ceiling: 300
Heat Index:   Visibility: 4mi
Dew Point:   Wind: 14mph
Humidity: 100%   Direction: 220°SW
Pressure: 29.8"   Gusts: NA
Location:  51.63°N, 2.41°W
Report Text: EGGD 261820Z 22012KT 6000 RADZ FEW002 BKN003 08/08 Q1009
Loading
Personal Weather Stations






























Interactive Weather Map New forecast layout! Learn more

10-Day Weather Forecast

Advertisements
Track Severe Weather on mobile